createdAt,value
2018-09-19T00:00:19.049Z,95.74
2018-09-19T00:05:30.158Z,95.78
2018-09-19T00:08:03.287Z,95.56
2018-09-19T00:10:36.282Z,95.18
2018-09-19T00:13:10.716Z,95.88
2018-09-19T00:15:43.767Z,96.67
2018-09-19T00:18:16.813Z,96.44
2018-09-19T00:20:49.632Z,95.74
2018-09-19T00:31:13.589Z,91.95
2018-09-19T00:33:46.956Z,92.77
2018-09-19T00:36:16.800Z,94.73
2018-09-19T00:38:50.666Z,93.02
2018-09-19T00:41:24.263Z,92.39
2018-09-19T00:43:57.064Z,92.03
2018-09-19T00:46:31.623Z,94.55
2018-09-19T00:49:04.387Z,93.90
2018-09-19T00:54:14.622Z,93.66
2018-09-19T00:56:47.139Z,94.38
2018-09-19T00:59:21.974Z,93.84
2018-09-19T01:04:34.301Z,94.87
2018-09-19T01:07:07.933Z,94.78
2018-09-19T01:09:40.616Z,94.72
2018-09-19T01:12:13.504Z,96.50
2018-09-19T01:14:45.643Z,98.38
2018-09-19T01:17:18.670Z,100.00
2018-09-19T01:19:56.451Z,99.54
2018-09-19T01:22:29.377Z,100.00
2018-09-19T01:25:02.005Z,100.00
2018-09-19T01:27:34.650Z,100.00
2018-09-19T01:30:07.103Z,100.00
2018-09-19T01:32:39.844Z,100.00
2018-09-19T01:35:16.163Z,99.79
2018-09-19T01:37:49.517Z,99.54
2018-09-19T01:40:22.482Z,99.82
2018-09-19T01:42:57.148Z,99.97
2018-09-19T01:45:29.374Z,99.99
2018-09-19T01:48:01.918Z,99.95
2018-09-19T01:50:37.341Z,99.96
2018-09-19T01:53:11.705Z,100.00
2018-09-19T02:06:10.231Z,100.00
2018-09-19T02:08:43.195Z,100.00
2018-09-19T02:14:14.253Z,100.00
2018-09-19T02:16:46.738Z,100.00
2018-09-19T02:21:56.783Z,100.00
2018-09-19T02:24:30.582Z,100.00
2018-09-19T02:27:04.269Z,100.00
2018-09-19T02:29:35.742Z,100.00
2018-09-19T02:32:09.659Z,100.00
2018-09-19T02:34:41.267Z,100.00
2018-09-19T02:37:14.478Z,100.00
2018-09-19T02:39:48.362Z,100.00
2018-09-19T02:42:21.684Z,100.00
2018-09-19T02:47:32.006Z,100.00
2018-09-19T02:50:06.508Z,100.00
2018-09-19T02:52:42.128Z,100.00
2018-09-19T02:55:15.379Z,100.00
2018-09-19T02:57:48.746Z,100.00
2018-09-19T03:00:21.319Z,100.00
2018-09-19T03:02:54.489Z,100.00
2018-09-19T03:08:03.686Z,100.00
2018-09-19T03:10:35.916Z,100.00
2018-09-19T03:13:08.974Z,100.00
2018-09-19T03:15:42.746Z,100.00
2018-09-19T03:18:18.171Z,100.00
2018-09-19T03:20:50.978Z,100.00
2018-09-19T03:23:24.014Z,100.00
2018-09-19T03:28:34.451Z,100.00
2018-09-19T03:31:07.037Z,100.00
2018-09-19T03:36:17.142Z,100.00
2018-09-19T03:41:27.075Z,100.00
2018-09-19T03:44:00.277Z,100.00
2018-09-19T03:49:08.842Z,100.00
2018-09-19T03:51:43.515Z,100.00
2018-09-19T03:54:15.997Z,100.00
2018-09-19T03:56:52.227Z,100.00
2018-09-19T03:59:25.694Z,100.00
2018-09-19T04:01:59.718Z,100.00
2018-09-19T04:07:09.918Z,100.00
2018-09-19T04:09:45.103Z,100.00
2018-09-19T04:14:54.216Z,100.00
2018-09-19T04:17:27.268Z,100.00
2018-09-19T04:20:00.471Z,100.00
2018-09-19T04:22:34.638Z,100.00
2018-09-19T04:25:08.232Z,100.00
2018-09-19T04:27:41.753Z,100.00
2018-09-19T04:32:53.792Z,100.00
2018-09-19T04:35:27.184Z,100.00
2018-09-19T04:38:00.468Z,100.00
2018-09-19T04:43:10.307Z,100.00
2018-09-19T04:45:43.670Z,100.00
2018-09-19T04:48:18.808Z,100.00
2018-09-19T04:50:53.023Z,100.00
2018-09-19T04:53:26.442Z,100.00
2018-09-19T04:56:00.461Z,100.00
2018-09-19T04:58:35.331Z,100.00
2018-09-19T05:01:09.948Z,100.00
2018-09-19T05:03:43.931Z,100.00
2018-09-19T05:06:16.527Z,100.00
2018-09-19T05:08:50.802Z,100.00
2018-09-19T05:11:24.111Z,100.00
2018-09-19T05:13:58.406Z,100.00
2018-09-19T05:16:31.979Z,100.00
2018-09-19T05:19:05.431Z,100.00
2018-09-19T05:21:38.241Z,100.00
2018-09-19T05:24:11.521Z,100.00
2018-09-19T05:26:45.899Z,100.00
2018-09-19T05:31:56.572Z,100.00
2018-09-19T05:34:32.175Z,100.00
2018-09-19T05:37:06.411Z,100.00
2018-09-19T05:42:18.373Z,100.00
2018-09-19T05:44:51.417Z,100.00
2018-09-19T05:47:26.146Z,100.00
2018-09-19T05:52:36.552Z,100.00
2018-09-19T05:55:10.394Z,100.00
2018-09-19T05:57:44.635Z,100.00
2018-09-19T06:00:17.927Z,100.00
2018-09-19T06:02:53.300Z,100.00
2018-09-19T06:05:27.402Z,100.00
2018-09-19T06:10:38.835Z,100.00
2018-09-19T06:13:12.500Z,100.00
2018-09-19T06:15:45.933Z,100.00
2018-09-19T06:18:19.004Z,100.00
2018-09-19T06:20:52.039Z,100.00
2018-09-19T06:23:27.279Z,100.00
2018-09-19T06:26:01.432Z,100.00
2018-09-19T06:28:36.564Z,100.00
2018-09-19T06:31:10.040Z,100.00
2018-09-19T06:33:46.174Z,100.00
2018-09-19T06:36:21.468Z,100.00
2018-09-19T06:38:54.942Z,100.00
2018-09-19T06:41:28.023Z,100.00
2018-09-19T06:44:05.186Z,100.00
2018-09-19T06:46:37.949Z,100.00
2018-09-19T06:49:11.167Z,100.00
2018-09-19T06:51:44.197Z,99.22
2018-09-19T06:54:17.938Z,99.11
2018-09-19T06:56:51.821Z,99.07
2018-09-19T06:59:25.414Z,98.49
2018-09-19T07:01:58.198Z,97.91
2018-09-19T07:04:27.223Z,97.42
2018-09-19T07:09:33.977Z,95.14
2018-09-19T07:14:38.769Z,94.82
2018-09-19T07:17:07.811Z,94.42
2018-09-19T07:19:36.863Z,91.81
2018-09-19T07:22:05.907Z,91.25
2018-09-19T07:24:34.950Z,90.38
2018-09-19T07:27:04.016Z,89.75
2018-09-19T07:29:33.057Z,89.45
2018-09-19T07:32:04.043Z,89.56
2018-09-19T07:34:33.100Z,89.55
2018-09-19T07:37:02.134Z,87.88
2018-09-19T07:39:31.175Z,87.81
2018-09-19T07:42:00.216Z,88.07
2018-09-19T07:44:30.439Z,87.37
2018-09-19T07:46:59.569Z,84.16
2018-09-19T07:49:28.625Z,83.53
2018-09-19T07:51:57.765Z,82.60
2018-09-19T07:57:02.571Z,80.52
2018-09-19T07:59:31.612Z,79.81
2018-09-19T08:02:00.665Z,80.62
2018-09-19T08:04:29.726Z,77.10
2018-09-19T08:06:58.753Z,76.25
2018-09-19T08:12:03.597Z,76.04
2018-09-19T08:14:32.804Z,73.93
2018-09-19T08:17:01.923Z,73.04
2018-09-19T08:19:32.324Z,70.94
2018-09-19T08:22:03.340Z,76.47
2018-09-19T08:27:08.145Z,75.50
2018-09-19T08:29:37.186Z,71.96
2018-09-19T08:32:06.336Z,72.26
2018-09-19T08:34:35.372Z,72.69
2018-09-19T08:37:04.429Z,69.09
2018-09-19T08:39:35.428Z,71.93
2018-09-19T08:44:40.227Z,71.74
2018-09-19T08:47:09.346Z,70.23
2018-09-19T08:49:38.371Z,65.64
2018-09-19T08:54:43.209Z,56.26
2018-09-19T08:57:12.237Z,56.52
2018-09-19T08:59:42.257Z,50.85
2018-09-19T09:02:11.413Z,47.82
2018-09-19T09:04:40.475Z,47.40
2018-09-19T09:07:09.558Z,41.59
2018-09-19T09:12:14.552Z,40.29
2018-09-19T09:14:43.533Z,42.71
2018-09-19T09:17:12.619Z,45.40
2018-09-19T09:19:41.712Z,47.07
2018-09-19T09:22:11.714Z,55.19
2018-09-19T09:29:52.374Z,55.56
2018-09-19T09:32:21.465Z,54.88
2018-09-19T09:34:53.580Z,53.12
2018-09-19T09:37:22.702Z,54.41
2018-09-19T09:39:51.717Z,56.69
2018-09-19T09:42:22.734Z,53.83
2018-09-19T09:44:51.782Z,56.14
2018-09-19T09:47:20.879Z,56.09
2018-09-19T09:49:49.917Z,53.47
2018-09-19T09:52:19.924Z,54.88
2018-09-19T09:57:25.731Z,54.94
2018-09-19T09:59:54.769Z,54.88
2018-09-19T10:02:23.822Z,54.27
2018-09-19T10:04:52.885Z,54.81
2018-09-19T10:07:21.940Z,53.39
2018-09-19T10:09:50.963Z,49.93
2018-09-19T10:12:20.012Z,43.92
2018-09-19T10:14:49.242Z,42.07
2018-09-19T10:17:26.293Z,39.47
2018-09-19T10:22:31.209Z,35.63
2018-09-19T10:25:00.252Z,33.41
2018-09-19T10:27:29.448Z,32.39
2018-09-19T10:29:58.502Z,33.04
2018-09-19T10:32:28.569Z,36.83
2018-09-19T10:34:57.625Z,31.88
2018-09-19T10:37:26.676Z,33.81
2018-09-19T10:39:55.729Z,36.54
2018-09-19T10:45:02.112Z,37.04
2018-09-19T10:47:31.159Z,38.88
2018-09-19T10:50:00.210Z,41.57
2018-09-19T10:52:29.281Z,38.69
2018-09-19T10:54:58.375Z,38.54
2018-09-19T10:57:28.411Z,36.11
2018-09-19T10:59:57.471Z,35.07
2018-09-19T11:02:30.881Z,35.72
2018-09-19T11:04:59.936Z,36.28
2018-09-19T11:07:28.997Z,35.42
2018-09-19T11:09:58.048Z,35.75
2018-09-19T11:12:27.105Z,33.79
2018-09-19T11:14:56.163Z,31.97
2018-09-19T11:17:25.211Z,31.00
2018-09-19T11:19:54.260Z,32.27
2018-09-19T11:22:23.323Z,29.80
2018-09-19T11:24:53.373Z,25.03
2018-09-19T11:27:22.456Z,26.27
2018-09-19T11:29:52.488Z,25.67
2018-09-19T11:32:21.576Z,26.07
2018-09-19T11:34:50.618Z,24.09
2018-09-19T11:37:19.679Z,23.48
2018-09-19T11:39:48.736Z,23.79
2018-09-19T11:50:05.009Z,24.68
2018-09-19T11:52:34.093Z,23.07
2018-09-19T11:57:39.352Z,24.81
2018-09-19T12:00:09.445Z,24.34
2018-09-19T12:02:38.486Z,23.60
2018-09-19T12:05:07.580Z,25.59
2018-09-19T12:07:36.627Z,25.59
2018-09-19T12:10:05.701Z,27.37
2018-09-19T12:12:35.814Z,28.92
2018-09-19T12:15:06.798Z,24.64
2018-09-19T12:17:37.945Z,22.30
2018-09-19T12:20:07.019Z,21.25
2018-09-19T12:22:39.112Z,22.05
2018-09-19T12:25:08.175Z,22.78
2018-09-19T12:27:38.222Z,23.34
2018-09-19T12:30:07.474Z,24.03
2018-09-19T12:32:36.537Z,24.86
2018-09-19T12:35:06.542Z,26.36
2018-09-19T12:37:35.604Z,27.42
2018-09-19T12:42:40.379Z,24.92
2018-09-19T12:45:10.415Z,25.02
2018-09-19T12:47:39.552Z,23.82
2018-09-19T12:50:08.603Z,24.68
2018-09-19T12:52:37.673Z,25.39
2018-09-19T12:55:06.723Z,28.42
2018-09-19T12:57:35.766Z,33.72
2018-09-19T13:00:04.819Z,37.41
2018-09-19T13:02:33.861Z,38.37
2018-09-19T13:05:03.929Z,41.57
2018-09-19T13:07:33.289Z,47.87
2018-09-19T13:10:02.344Z,43.26
2018-09-19T13:12:33.396Z,40.38
2018-09-19T13:15:02.457Z,40.38
2018-09-19T13:17:31.518Z,37.36
2018-09-19T13:20:00.563Z,35.61
2018-09-19T13:25:05.990Z,30.56
2018-09-19T13:27:35.047Z,38.84
2018-09-19T13:30:05.054Z,35.43
2018-09-19T13:32:34.112Z,32.55
2018-09-19T13:37:39.930Z,31.71
2018-09-19T13:40:08.972Z,34.49
2018-09-19T13:42:38.124Z,36.12
2018-09-19T13:45:07.217Z,34.70
2018-09-19T13:47:36.296Z,31.33
2018-09-19T13:50:05.318Z,31.76
2018-09-19T13:55:14.865Z,35.00
2018-09-19T14:00:20.709Z,29.49
2018-09-19T14:05:25.560Z,27.25
2018-09-19T14:07:54.622Z,26.34
2018-09-19T14:10:27.229Z,26.76
2018-09-19T14:12:56.273Z,25.48
2018-09-19T14:18:01.205Z,24.63
2018-09-19T14:20:30.334Z,25.28
2018-09-19T14:22:59.453Z,27.03
2018-09-19T14:25:28.496Z,27.92
2018-09-19T14:27:57.584Z,27.98
2018-09-19T14:30:26.645Z,28.76
2018-09-19T14:32:56.000Z,27.49
2018-09-19T14:35:26.111Z,25.48
2018-09-19T14:37:55.123Z,26.05
2018-09-19T14:40:24.165Z,25.75
2018-09-19T14:42:53.213Z,24.52
2018-09-19T14:45:22.281Z,25.09
2018-09-19T14:47:51.375Z,24.63
2018-09-19T14:52:56.296Z,24.15
2018-09-19T14:55:25.376Z,27.51
2018-09-19T14:57:54.417Z,26.72
2018-09-19T15:00:23.561Z,26.18
2018-09-19T15:05:37.396Z,26.16
2018-09-19T15:08:06.684Z,26.76
2018-09-19T15:10:35.743Z,30.90
2018-09-19T15:13:05.791Z,30.43
2018-09-19T15:15:35.817Z,29.23
2018-09-19T15:18:04.890Z,29.57
2018-09-19T15:20:34.004Z,31.37
2018-09-19T15:23:03.024Z,33.16
2018-09-19T15:25:32.074Z,32.81
2018-09-19T15:28:01.197Z,34.42
2018-09-19T15:33:07.090Z,34.73
2018-09-19T15:35:36.146Z,35.43
2018-09-19T15:38:07.262Z,36.94
2018-09-19T15:40:36.321Z,36.74
2018-09-19T15:48:17.034Z,38.76
2018-09-19T15:50:46.117Z,38.60
2018-09-19T15:53:15.158Z,39.89
2018-09-19T15:55:45.162Z,41.82
2018-09-19T15:58:14.215Z,42.17
2018-09-19T16:03:19.079Z,42.89
2018-09-19T16:05:48.171Z,44.22
2018-09-19T16:08:17.216Z,44.59
2018-09-19T16:10:47.212Z,43.79
2018-09-19T16:13:16.281Z,44.60
2018-09-19T16:15:45.333Z,44.55
2018-09-19T16:18:14.461Z,46.02
2018-09-19T16:20:43.521Z,45.63
2018-09-19T16:23:13.537Z,48.29
2018-09-19T16:25:43.566Z,48.89
2018-09-19T16:28:12.621Z,49.79
2018-09-19T16:30:41.664Z,49.63
2018-09-19T16:33:12.714Z,49.05
2018-09-19T16:35:41.765Z,51.90
2018-09-19T16:38:12.780Z,51.17
2018-09-19T16:40:41.839Z,51.02
2018-09-19T16:43:10.966Z,53.53
2018-09-19T16:45:40.030Z,52.65
2018-09-19T16:48:09.032Z,54.00
2018-09-19T16:50:38.099Z,55.55
2018-09-19T16:53:07.275Z,58.47
2018-09-19T16:55:37.149Z,55.75
2018-09-19T16:58:06.208Z,56.40
2018-09-19T17:00:35.253Z,58.09
2018-09-19T17:03:04.313Z,62.93
2018-09-19T17:05:33.367Z,63.94
2018-09-19T17:08:02.413Z,63.09
2018-09-19T17:10:31.467Z,65.00
2018-09-19T17:13:01.115Z,63.55
2018-09-19T17:15:30.334Z,65.43
2018-09-19T17:17:59.239Z,68.86
2018-09-19T17:20:28.269Z,70.79
2018-09-19T17:22:57.325Z,74.83
2018-09-19T17:25:26.352Z,75.06
2018-09-19T17:30:33.143Z,75.14
2018-09-19T17:35:37.945Z,78.89
2018-09-19T17:40:43.778Z,76.54
2018-09-19T17:45:48.765Z,79.74
2018-09-19T17:48:17.824Z,76.37
2018-09-19T17:50:46.869Z,81.32
2018-09-19T17:55:52.897Z,84.49
2018-09-19T17:58:22.976Z,85.87
2018-09-19T18:00:52.997Z,85.26
2018-09-19T18:03:21.985Z,85.72
2018-09-19T18:08:26.849Z,85.61
2018-09-19T18:10:56.906Z,88.19
2018-09-19T18:13:25.968Z,90.28
2018-09-19T18:15:55.022Z,90.79
2018-09-19T18:18:24.171Z,88.99
2018-09-19T18:23:29.021Z,79.15
2018-09-19T18:28:33.869Z,87.47
2018-09-19T18:33:39.964Z,90.50
2018-09-19T18:36:09.022Z,89.33
2018-09-19T18:38:39.015Z,85.21
2018-09-19T18:41:10.062Z,84.77
2018-09-19T18:43:39.117Z,88.59
2018-09-19T18:46:09.225Z,89.39
2018-09-19T18:48:38.288Z,84.18
2018-09-19T18:51:07.338Z,90.64
2018-09-19T18:53:36.378Z,93.34
2018-09-19T18:56:05.433Z,94.11
2018-09-19T18:58:34.479Z,94.56
2018-09-19T19:01:03.529Z,85.79
2018-09-19T19:03:33.610Z,91.70
2018-09-19T19:08:38.889Z,92.73
2018-09-19T19:11:09.905Z,94.93
2018-09-19T19:13:38.957Z,93.09
2018-09-19T19:16:08.010Z,95.58
2018-09-19T19:18:37.143Z,89.09
2018-09-19T19:21:06.138Z,95.33
2018-09-19T19:23:35.194Z,95.79
2018-09-19T19:26:05.215Z,96.64
2018-09-19T19:28:34.272Z,96.17
2018-09-19T19:31:03.325Z,96.64
2018-09-19T19:33:32.373Z,94.74
2018-09-19T19:36:01.430Z,95.27
2018-09-19T19:38:30.496Z,96.08
2018-09-19T19:40:59.581Z,98.00
2018-09-19T19:43:28.646Z,93.34
2018-09-19T19:45:57.725Z,95.44
2018-09-19T19:48:26.790Z,96.47
2018-09-19T19:50:55.837Z,96.75
2018-09-19T19:53:26.905Z,98.80
2018-09-19T19:55:56.005Z,100.00
2018-09-19T19:58:26.079Z,99.81
2018-09-19T20:00:55.116Z,97.63
2018-09-19T20:05:59.982Z,98.69
2018-09-19T20:08:29.045Z,96.95
2018-09-19T20:10:58.130Z,96.06
2018-09-19T20:13:27.194Z,100.00
2018-09-19T20:15:56.307Z,98.38
2018-09-19T20:18:25.377Z,100.00
2018-09-19T20:20:54.478Z,100.00
2018-09-19T20:23:23.542Z,99.67
2018-09-19T20:25:52.613Z,100.00
2018-09-19T20:28:21.668Z,100.00
2018-09-19T20:30:50.741Z,100.00
2018-09-19T20:33:20.735Z,100.00
2018-09-19T20:35:49.800Z,100.00
2018-09-19T20:40:54.643Z,100.00
2018-09-19T20:43:23.706Z,100.00
2018-09-19T20:48:28.499Z,100.00
2018-09-19T20:50:57.565Z,100.00
2018-09-19T20:53:26.646Z,100.00
2018-09-19T20:56:00.270Z,100.00
2018-09-19T20:58:32.790Z,100.00
2018-09-19T21:01:03.128Z,99.62
2018-09-19T21:03:32.635Z,100.00
2018-09-19T21:06:06.405Z,98.06
2018-09-19T21:08:38.906Z,100.00
2018-09-19T21:11:13.905Z,99.32
2018-09-19T21:13:46.833Z,97.28
2018-09-19T21:18:51.997Z,98.29
2018-09-19T21:21:21.052Z,100.00
2018-09-19T21:23:51.054Z,100.00
2018-09-19T21:26:20.105Z,100.00
2018-09-19T21:28:49.211Z,100.00
2018-09-19T21:31:18.288Z,100.00
2018-09-19T21:36:23.125Z,100.00
2018-09-19T21:38:52.183Z,100.00
2018-09-19T21:41:21.240Z,100.00
2018-09-19T21:43:50.341Z,100.00
2018-09-19T21:46:19.398Z,100.00
2018-09-19T21:51:24.278Z,100.00
2018-09-19T21:53:53.346Z,100.00
2018-09-19T21:58:58.132Z,100.00
2018-09-19T22:01:27.247Z,100.00
2018-09-19T22:03:56.333Z,100.00
2018-09-19T22:06:25.883Z,100.00
2018-09-19T22:08:59.580Z,100.00
2018-09-19T22:14:06.513Z,100.00
2018-09-19T22:16:35.603Z,100.00
2018-09-19T22:19:04.648Z,100.00
2018-09-19T22:21:33.697Z,100.00
2018-09-19T22:24:02.775Z,100.00
2018-09-19T22:26:31.837Z,100.00
2018-09-19T22:29:00.924Z,100.00
2018-09-19T22:31:32.871Z,100.00
2018-09-19T22:34:03.054Z,100.00
2018-09-19T22:36:33.187Z,100.00
2018-09-19T22:39:02.259Z,100.00
2018-09-19T22:41:31.332Z,100.00
2018-09-19T22:46:37.179Z,100.00
2018-09-19T22:49:07.191Z,100.00
2018-09-19T22:51:36.256Z,100.00
2018-09-19T22:54:05.321Z,100.00
2018-09-19T22:56:34.386Z,100.00
2018-09-19T22:59:03.459Z,100.00
2018-09-19T23:01:32.511Z,100.00
2018-09-19T23:04:02.565Z,100.00
2018-09-19T23:06:31.613Z,100.00
2018-09-19T23:11:36.516Z,100.00
2018-09-19T23:14:05.570Z,100.00
2018-09-19T23:16:34.761Z,100.00
2018-09-19T23:19:04.845Z,100.00
2018-09-19T23:21:34.906Z,100.00
2018-09-19T23:26:39.811Z,100.00
2018-09-19T23:29:08.862Z,100.00
2018-09-19T23:31:38.881Z,100.00
2018-09-19T23:34:09.932Z,100.00
2018-09-19T23:39:14.721Z,100.00
2018-09-19T23:41:43.799Z,100.00
2018-09-19T23:44:12.865Z,100.00
2018-09-19T23:46:41.914Z,100.00
2018-09-19T23:49:11.074Z,100.00
2018-09-19T23:51:40.133Z,100.00
2018-09-19T23:54:09.253Z,100.00
2018-09-19T23:56:38.348Z,100.00
2018-09-19T23:59:07.394Z,100.00
